Terminal Aerodrome Forecast
Issued by NWS Mt. Holly, NJ

Home | Current Version | Previous Version | Text Only | Print | Product List | Glossary On
Versions: 1 2 3 4 5 6 7 8 9 10 11 12 13 14 15 16 17 18 19 20 21 22 23 24 25 26 27 28 29 30 31
000
FTUS41 KPHI 031500 AAA
TAFPHL
TAF AMD
KPHL 031500Z 0315/0418 VRB03KT P6SM BKN100
     FM031800 15004KT P6SM -SHSN OVC045
     FM032000 16004KT 4SM -SNPL OVC025
     FM032100 16006KT 1SM -PL OVC008
     FM040000 18006KT 1SM -FZRAPL OVC005 WS020/21040KT
     FM040200 20008KT 2SM RA BR OVC005 WS015/23050KT
     FM040800 24008KT 2SM -RADZ BR OVC005 WS020/25040KT
     FM041300 27006KT 2SM -RADZ BR OVC005=

USA.gov is the U.S. government's official web portal to all federal, state and local government web resources and services.